Meath Environmental Platform

Observations for Trim Patrick St

Time AQI Temp °C Hum % Pres Pa CO μg/m³ H₂S μg/m³ NO μg/m³ NO₂ μg/m³ O₃ μg/m³ SO₂ μg/m³ PM1 μg/m³ PM2.5 μg/m³ PM10 μg/m³
Tuesday 4 August 2026
08:27 2 21.4 79 38,460 0.07 0 2.23 0 5.82 6.08 2 4.58 5.04
08:26 2 21.4 80 38,460 0.04 0 2.29 0 18.89 5.67 2 5.23 5.75
08:25 1 21.3 80 38,460 0.05 0 2.24 0 21 5.57 2 4.54 4.99
08:24 1 21.3 80 38,460 0.04 0 2.26 0 18.89 5.46 2 4.51 4.97
08:23 1 21.3 80 38,460 0.08 0 2.29 0 5.66 5.16 2 4.51 4.97
08:22 1 21.3 82 38,460 0.05 0 2.45 0 18.09 6.76 2 4.4 4.84
08:21 1 21.2 81 38,460 0.06 0 2.39 0 23.24 5.57 2 4.46 4.9
08:20 1 21.2 81 38,460 0.06 0 2.42 0 11.44 5.71 2 5.13 5.64
08:19 1 21.2 81 38,460 0.08 0 2.45 0.36 17.02 5.57 2 4.45 4.89
08:18 1 21.1 82 38,460 0.08 0 2.47 2.92 20.47 5.4 2 4.39 4.83
08:16 1 21.1 83 38,460 0.1 0 2.44 3.21 22.15 5.71 2 4.32 4.75
08:15 1 21 83 38,460 0.1 0 2.41 8.74 21.46 5.43 2 4.32 4.75
08:12 1 20.9 84 38,460 0.11 0.02 2.41 12.85 18.26 6.23 2 4.3 4.73
08:10 1 20.7 83 38,459 0.09 0 2.37 4.66 19.98 5.44 2 4.31 4.74
08:09 1 20.7 84 38,459 0.09 0 2.4 0.95 24.36 5.43 2 4.3 4.73
08:06 1 20.5 84 38,459 0.08 0 2.44 9.31 20.89 5.35 2.86 5.67 6.24
08:05 1 20.5 84 38,459 0.09 0.06 2.46 7.39 17.12 4.66 2 4.27 4.7
08:04 1 20.5 84 38,459 0.14 0.25 2.51 11.81 26.65 4.33 2 4.26 4.68
08:03 1 20.5 85 38,459 0.09 0.56 2.49 11.42 30.88 4.72 2 4.22 4.65
08:02 1 20.4 84 38,459 0.08 0 2.45 1.87 17.21 4.95 2 4.26 4.69